createdAt,value
2022-08-09T00:00:04.885Z,2.55
2022-08-09T00:01:43.189Z,2.15
2022-08-09T00:04:05.698Z,2.20
2022-08-09T00:05:03.739Z,2.60
2022-08-09T00:06:44.276Z,2.45
2022-08-09T00:08:12.967Z,2.40
2022-08-09T00:09:57.015Z,2.20
2022-08-09T00:11:24.976Z,2.85
2022-08-09T00:12:52.717Z,2.35
2022-08-09T00:14:22.030Z,2.83
2022-08-09T00:15:58.745Z,2.50
2022-08-09T00:18:05.456Z,3.08
2022-08-09T00:19:10.376Z,2.40
2022-08-09T00:20:34.165Z,2.42
2022-08-09T00:21:58.854Z,2.22
2022-08-09T00:23:57.071Z,2.42
2022-08-09T00:25:08.531Z,2.22
2022-08-09T00:26:34.037Z,2.30
2022-08-09T00:27:59.953Z,2.45
2022-08-09T00:29:39.934Z,2.65
2022-08-09T00:31:09.252Z,2.38
2022-08-09T00:32:51.774Z,2.67
2022-08-09T00:34:19.533Z,2.22
2022-08-09T00:35:46.859Z,2.33
2022-08-09T00:37:11.315Z,2.17
2022-08-09T00:38:35.302Z,2.25
2022-08-09T00:40:09.172Z,2.72
2022-08-09T00:44:10.304Z,2.42
2022-08-09T00:44:16.376Z,2.45
2022-08-09T00:45:16.156Z,2.35
2022-08-09T00:46:56.589Z,2.03
2022-08-09T00:48:25.130Z,2.38
2022-08-09T00:49:52.555Z,2.60
2022-08-09T00:51:20.123Z,2.30
2022-08-09T00:52:42.710Z,2.70
2022-08-09T00:54:06.635Z,2.22
2022-08-09T00:56:03.227Z,2.47
2022-08-09T00:57:24.608Z,2.17
2022-08-09T00:58:57.237Z,2.75
2022-08-09T01:00:23.564Z,2.85
2022-08-09T01:01:50.003Z,2.58
2022-08-09T01:03:20.992Z,2.00
2022-08-09T01:04:59.111Z,3.20
2022-08-09T01:06:53.545Z,2.53
2022-08-09T01:08:26.967Z,2.65
2022-08-09T01:09:56.589Z,2.55
2022-08-09T01:11:36.504Z,2.35
2022-08-09T01:13:03.711Z,2.70
2022-08-09T01:14:34.053Z,2.45
2022-08-09T01:15:57.597Z,2.60
2022-08-09T01:17:25.181Z,2.20
2022-08-09T01:19:01.962Z,2.35
2022-08-09T01:20:33.518Z,2.53
2022-08-09T01:22:12.422Z,2.30
2022-08-09T01:24:02.902Z,2.85
2022-08-09T01:25:41.658Z,2.63
2022-08-09T01:27:08.337Z,2.50
2022-08-09T01:28:32.660Z,2.72
2022-08-09T01:29:59.242Z,2.50
2022-08-09T01:32:31.031Z,2.25
2022-08-09T01:33:11.340Z,2.67
2022-08-09T01:34:36.151Z,2.30
2022-08-09T01:36:05.708Z,2.53
2022-08-09T01:38:06.340Z,2.33
2022-08-09T01:39:14.382Z,2.85
2022-08-09T01:40:43.892Z,2.63
2022-08-09T01:42:11.301Z,2.22
2022-08-09T01:43:42.181Z,2.03
2022-08-09T01:45:15.268Z,2.70
2022-08-09T01:46:41.325Z,2.10
2022-08-09T01:48:07.164Z,2.63
2022-08-09T01:49:39.047Z,2.35
2022-08-09T01:51:04.726Z,2.63
2022-08-09T01:52:27.959Z,2.40
2022-08-09T01:53:58.050Z,2.30
2022-08-09T01:55:22.706Z,2.35
2022-08-09T01:56:51.821Z,1.90
2022-08-09T01:58:17.604Z,2.15
2022-08-09T01:59:52.011Z,2.50
2022-08-09T02:01:18.323Z,2.65
2022-08-09T02:02:44.737Z,2.40
2022-08-09T02:04:08.692Z,2.22
2022-08-09T02:05:53.681Z,2.30
2022-08-09T02:08:35.764Z,2.63
2022-08-09T02:09:04.767Z,2.50
2022-08-09T02:10:31.152Z,2.50
2022-08-09T02:11:54.987Z,2.78
2022-08-09T02:13:26.091Z,2.83
2022-08-09T02:15:02.172Z,2.38
2022-08-09T02:16:33.655Z,2.85
2022-08-09T02:18:01.630Z,2.10
2022-08-09T02:19:38.939Z,2.58
2022-08-09T02:21:17.127Z,2.72
2022-08-09T02:22:49.946Z,2.40
2022-08-09T02:24:29.632Z,2.22
2022-08-09T02:25:55.964Z,2.50
2022-08-09T02:27:21.305Z,2.50
2022-08-09T02:29:14.234Z,2.53
2022-08-09T02:30:41.456Z,2.60
2022-08-09T02:32:08.570Z,2.42
2022-08-09T02:33:38.397Z,2.45
2022-08-09T02:35:32.354Z,3.08
2022-08-09T02:37:07.649Z,2.67
2022-08-09T02:38:40.202Z,2.70
2022-08-09T02:40:13.416Z,2.58
2022-08-09T02:41:43.894Z,2.63
2022-08-09T02:43:10.278Z,2.47
2022-08-09T02:44:40.977Z,3.05
2022-08-09T02:46:05.820Z,3.08
2022-08-09T02:47:33.972Z,2.88
2022-08-09T02:49:17.509Z,2.58
2022-08-09T02:50:45.241Z,2.58
2022-08-09T02:52:09.726Z,2.70
2022-08-09T02:53:36.439Z,2.42
2022-08-09T02:55:03.300Z,2.50
2022-08-09T02:56:51.395Z,2.50
2022-08-09T02:58:32.530Z,2.78
2022-08-09T03:00:25.602Z,2.90
2022-08-09T03:02:06.319Z,2.38
2022-08-09T03:04:12.412Z,2.63
2022-08-09T03:05:19.511Z,2.58
2022-08-09T03:06:43.586Z,2.65
2022-08-09T03:08:09.401Z,2.60
2022-08-09T03:09:33.531Z,2.60
2022-08-09T03:10:57.671Z,2.60
2022-08-09T03:12:24.114Z,2.88
2022-08-09T03:13:58.334Z,2.67
2022-08-09T03:16:04.292Z,2.50
2022-08-09T03:17:20.495Z,2.40
2022-08-09T03:18:50.633Z,3.28
2022-08-09T03:20:17.303Z,2.60
2022-08-09T03:21:40.270Z,2.92
2022-08-09T03:23:14.925Z,2.30
2022-08-09T03:24:51.721Z,2.67
2022-08-09T03:26:17.868Z,2.90
2022-08-09T03:27:45.275Z,2.13
2022-08-09T03:29:09.631Z,2.47
2022-08-09T03:30:38.678Z,2.35
2022-08-09T03:32:02.576Z,2.72
2022-08-09T03:33:26.560Z,2.50
2022-08-09T03:35:24.977Z,2.40
2022-08-09T03:36:58.486Z,3.00
2022-08-09T03:38:28.847Z,2.70
2022-08-09T03:39:55.547Z,2.58
2022-08-09T03:41:19.192Z,2.67
2022-08-09T03:42:43.159Z,2.53
2022-08-09T03:44:08.739Z,2.35
2022-08-09T03:46:04.341Z,2.85
2022-08-09T03:47:17.618Z,2.95
2022-08-09T03:48:43.009Z,2.60
2022-08-09T03:50:18.840Z,2.92
2022-08-09T03:51:58.896Z,2.92
2022-08-09T03:53:32.164Z,2.60
2022-08-09T03:55:02.280Z,2.65
2022-08-09T03:56:31.311Z,2.70
2022-08-09T03:58:06.514Z,2.88
2022-08-09T03:59:52.827Z,2.60
2022-08-09T04:01:18.958Z,2.70
2022-08-09T04:02:46.015Z,2.50
2022-08-09T04:04:16.605Z,2.67
2022-08-09T04:05:40.708Z,2.40
2022-08-09T04:07:04.483Z,2.85
2022-08-09T04:08:28.744Z,2.60
2022-08-09T04:09:53.775Z,2.25
2022-08-09T04:11:16.480Z,2.80
2022-08-09T04:12:49.723Z,2.90
2022-08-09T04:14:53.981Z,3.17
2022-08-09T04:16:20.546Z,3.42
2022-08-09T04:17:42.455Z,2.90
2022-08-09T04:19:10.891Z,2.60
2022-08-09T04:20:39.306Z,2.70
2022-08-09T04:22:03.850Z,2.65
2022-08-09T04:23:35.469Z,2.58
2022-08-09T04:24:57.988Z,2.08
2022-08-09T04:26:23.319Z,2.50
2022-08-09T04:27:49.325Z,2.75
2022-08-09T04:29:15.649Z,2.20
2022-08-09T04:30:39.400Z,2.65
2022-08-09T04:32:08.489Z,2.90
2022-08-09T04:33:32.296Z,2.97
2022-08-09T04:35:14.076Z,2.90
2022-08-09T04:36:42.428Z,2.78
2022-08-09T04:38:07.793Z,3.13
2022-08-09T04:39:31.539Z,3.00
2022-08-09T04:40:54.199Z,3.42
2022-08-09T04:42:20.566Z,3.50
2022-08-09T04:43:46.654Z,2.85
2022-08-09T04:45:20.507Z,2.38
2022-08-09T04:46:59.454Z,3.25
2022-08-09T04:48:33.106Z,3.30
2022-08-09T04:49:57.644Z,2.58
2022-08-09T04:51:21.583Z,2.63
2022-08-09T04:52:46.707Z,3.10
2022-08-09T04:54:10.910Z,2.65
2022-08-09T04:55:39.054Z,2.60
2022-08-09T04:57:23.814Z,2.72
2022-08-09T04:58:47.925Z,3.45
2022-08-09T05:00:14.424Z,2.92
2022-08-09T05:01:40.932Z,2.33
2022-08-09T05:03:30.133Z,2.70
2022-08-09T05:04:49.058Z,2.25
2022-08-09T05:06:27.142Z,3.00
2022-08-09T05:07:53.606Z,2.70
2022-08-09T05:09:17.101Z,2.60
2022-08-09T05:10:39.642Z,3.33
2022-08-09T05:12:04.921Z,2.75
2022-08-09T05:13:28.118Z,3.38
2022-08-09T05:14:52.391Z,3.25
2022-08-09T05:16:15.147Z,2.85
2022-08-09T05:18:38.045Z,2.80
2022-08-09T05:19:25.838Z,3.05
2022-08-09T05:20:48.895Z,3.03
2022-08-09T05:22:34.980Z,3.40
2022-08-09T05:24:01.710Z,2.88
2022-08-09T05:25:25.825Z,3.20
2022-08-09T05:26:55.993Z,3.05
2022-08-09T05:28:19.671Z,3.65
2022-08-09T05:29:43.176Z,3.03
2022-08-09T05:31:10.799Z,3.10
2022-08-09T05:32:34.549Z,2.80
2022-08-09T05:33:57.984Z,2.90
2022-08-09T05:35:22.361Z,2.97
2022-08-09T05:36:46.994Z,3.13
2022-08-09T05:38:11.296Z,3.22
2022-08-09T05:39:46.856Z,3.03
2022-08-09T05:41:12.862Z,2.88
2022-08-09T05:42:36.684Z,3.15
2022-08-09T05:43:59.911Z,3.22
2022-08-09T05:45:24.881Z,2.50
2022-08-09T05:46:47.581Z,2.95
2022-08-09T05:48:12.054Z,3.30
2022-08-09T05:50:24.121Z,2.88
2022-08-09T05:51:42.996Z,2.83
2022-08-09T05:53:01.885Z,2.70
2022-08-09T05:54:25.470Z,3.00
2022-08-09T05:55:50.719Z,3.38
2022-08-09T05:57:17.574Z,2.85
2022-08-09T05:58:42.881Z,3.33
2022-08-09T06:00:09.475Z,2.78
2022-08-09T06:01:33.941Z,3.17
2022-08-09T06:03:10.842Z,3.42
2022-08-09T06:04:35.245Z,2.92
2022-08-09T06:06:05.747Z,2.83
2022-08-09T06:07:29.784Z,2.83
2022-08-09T06:08:53.716Z,2.88
2022-08-09T06:10:18.192Z,3.00
2022-08-09T06:11:57.617Z,3.00
2022-08-09T06:13:21.522Z,2.80
2022-08-09T06:14:44.079Z,3.00
2022-08-09T06:16:10.616Z,3.33
2022-08-09T06:17:40.250Z,2.58
2022-08-09T06:19:04.682Z,2.92
2022-08-09T06:20:30.196Z,2.67
2022-08-09T06:21:58.388Z,3.00
2022-08-09T06:23:22.105Z,3.40
2022-08-09T06:24:45.599Z,2.53
2022-08-09T06:26:12.614Z,2.78
2022-08-09T06:27:42.563Z,3.33
2022-08-09T06:29:15.002Z,2.90
2022-08-09T06:30:38.663Z,2.80
2022-08-09T06:32:08.687Z,3.17
2022-08-09T06:33:53.104Z,3.03
2022-08-09T06:35:16.949Z,3.72
2022-08-09T06:36:42.885Z,2.70
2022-08-09T06:38:07.850Z,2.65
2022-08-09T06:39:48.486Z,3.15
2022-08-09T06:41:18.671Z,3.33
2022-08-09T06:42:44.756Z,3.38
2022-08-09T06:44:07.824Z,3.22
2022-08-09T06:46:07.813Z,2.72
2022-08-09T06:47:15.515Z,3.20
2022-08-09T06:48:42.871Z,2.55
2022-08-09T06:50:13.591Z,3.05
2022-08-09T06:51:40.205Z,2.90
2022-08-09T06:53:04.841Z,3.05
2022-08-09T06:54:28.471Z,3.13
2022-08-09T06:55:52.472Z,2.88
2022-08-09T06:57:16.163Z,2.97
2022-08-09T07:00:51.714Z,2.72
2022-08-09T07:00:51.876Z,2.88
2022-08-09T07:02:09.010Z,2.38
2022-08-09T07:03:34.227Z,2.92
2022-08-09T07:05:04.242Z,2.88
2022-08-09T07:06:28.021Z,2.13
2022-08-09T07:08:00.670Z,2.58
2022-08-09T07:09:57.065Z,2.45
2022-08-09T07:11:12.790Z,2.45
2022-08-09T07:12:42.016Z,2.70
2022-08-09T07:14:07.428Z,2.60
2022-08-09T07:16:35.324Z,2.90
2022-08-09T07:17:16.836Z,2.30
2022-08-09T07:18:40.445Z,2.53
2022-08-09T07:20:04.611Z,2.50
2022-08-09T07:21:31.519Z,2.78
2022-08-09T07:22:58.005Z,2.97
2022-08-09T07:24:21.344Z,2.53
2022-08-09T07:26:02.423Z,2.83
2022-08-09T07:27:34.034Z,2.20
2022-08-09T07:29:11.996Z,2.60
2022-08-09T07:30:37.201Z,3.45
2022-08-09T07:32:03.514Z,3.13
2022-08-09T07:33:27.523Z,2.65
2022-08-09T07:35:13.151Z,2.22
2022-08-09T07:36:39.264Z,2.47
2022-08-09T07:38:04.571Z,2.20
2022-08-09T07:39:41.412Z,2.50
2022-08-09T07:41:11.044Z,2.60
2022-08-09T07:42:35.147Z,2.40
2022-08-09T07:43:59.195Z,2.15
2022-08-09T07:45:37.401Z,2.60
2022-08-09T07:47:02.436Z,2.30
2022-08-09T07:48:30.339Z,2.30
2022-08-09T07:50:08.133Z,2.33
2022-08-09T07:52:04.715Z,2.38
2022-08-09T07:53:16.774Z,1.98
2022-08-09T07:54:59.528Z,2.47
2022-08-09T07:56:26.714Z,2.38
2022-08-09T07:57:51.148Z,2.10
2022-08-09T07:59:25.489Z,2.47
2022-08-09T08:01:06.810Z,2.35
2022-08-09T08:02:35.533Z,2.13
2022-08-09T08:04:10.536Z,2.70
2022-08-09T08:05:54.196Z,2.28
2022-08-09T08:08:44.577Z,1.73
2022-08-09T08:09:07.564Z,1.83
2022-08-09T08:10:41.435Z,1.88
2022-08-09T08:12:29.253Z,2.25
2022-08-09T08:13:56.596Z,2.33
2022-08-09T08:15:24.400Z,2.38
2022-08-09T08:17:00.871Z,1.83
2022-08-09T08:18:31.555Z,2.00
2022-08-09T08:19:55.195Z,2.00
2022-08-09T08:21:21.316Z,2.45
2022-08-09T08:22:48.573Z,1.67
2022-08-09T08:24:16.450Z,1.70
2022-08-09T08:25:44.736Z,1.98
2022-08-09T08:27:17.194Z,2.03
2022-08-09T08:28:42.169Z,2.10
2022-08-09T08:30:07.649Z,2.58
2022-08-09T08:31:39.448Z,2.33
2022-08-09T08:33:23.949Z,1.92
2022-08-09T08:34:48.131Z,2.00
2022-08-09T08:36:28.729Z,2.13
2022-08-09T08:37:59.557Z,1.98
2022-08-09T08:39:25.847Z,1.80
2022-08-09T08:40:49.991Z,2.03
2022-08-09T08:42:16.612Z,1.85
2022-08-09T08:43:40.549Z,2.42
2022-08-09T08:45:13.461Z,1.92
2022-08-09T08:46:41.427Z,1.73
2022-08-09T08:48:29.233Z,1.80
2022-08-09T08:49:55.374Z,2.00
2022-08-09T08:51:19.742Z,1.60
2022-08-09T08:53:00.438Z,1.83
2022-08-09T08:54:29.881Z,1.92
2022-08-09T08:55:54.082Z,1.80
2022-08-09T08:57:18.387Z,2.00
2022-08-09T08:58:46.449Z,2.10
2022-08-09T09:00:21.165Z,2.10
2022-08-09T09:01:57.489Z,1.50
2022-08-09T09:03:37.326Z,1.50
2022-08-09T09:05:06.107Z,1.98
2022-08-09T09:06:35.457Z,2.00
2022-08-09T09:07:59.880Z,1.98
2022-08-09T09:09:57.784Z,1.70
2022-08-09T09:11:08.847Z,2.03
2022-08-09T09:12:39.401Z,1.90
2022-08-09T09:14:10.164Z,1.95
2022-08-09T09:15:40.263Z,2.03
2022-08-09T09:17:03.741Z,1.80
2022-08-09T09:18:31.000Z,1.88
2022-08-09T09:19:54.731Z,2.20
2022-08-09T09:21:26.071Z,2.17
2022-08-09T09:22:55.479Z,2.10
2022-08-09T09:24:21.440Z,1.70
2022-08-09T09:26:02.221Z,1.88
2022-08-09T09:28:06.776Z,1.92
2022-08-09T09:29:17.254Z,1.77
2022-08-09T09:30:54.620Z,1.90
2022-08-09T09:32:32.453Z,2.08
2022-08-09T09:34:15.317Z,2.10
2022-08-09T09:36:03.739Z,1.90
2022-08-09T09:37:43.681Z,1.70
2022-08-09T09:39:10.835Z,1.55
2022-08-09T09:40:46.310Z,2.13
2022-08-09T09:42:10.931Z,2.05
2022-08-09T09:43:41.533Z,2.00
2022-08-09T09:45:25.814Z,1.80
2022-08-09T09:46:52.108Z,2.17
2022-08-09T09:48:16.310Z,2.42
2022-08-09T09:50:07.353Z,1.85
2022-08-09T09:51:38.636Z,1.80
2022-08-09T09:53:04.085Z,1.80
2022-08-09T09:54:39.437Z,2.03
2022-08-09T09:56:05.801Z,2.00
2022-08-09T09:58:03.080Z,1.65
2022-08-09T09:59:16.184Z,1.83
2022-08-09T10:00:52.591Z,1.67
2022-08-09T10:02:18.713Z,2.15
2022-08-09T10:03:56.369Z,2.08
2022-08-09T10:06:00.698Z,1.98
2022-08-09T10:07:24.084Z,1.90
2022-08-09T10:08:57.155Z,2.67
2022-08-09T10:10:31.695Z,1.70
2022-08-09T10:12:12.584Z,1.80
2022-08-09T10:13:45.422Z,2.20
2022-08-09T10:15:25.309Z,1.77
2022-08-09T10:17:00.255Z,1.88
2022-08-09T10:18:35.431Z,2.08
2022-08-09T10:20:00.236Z,1.77
2022-08-09T10:21:25.649Z,2.42
2022-08-09T10:22:51.047Z,1.65
2022-08-09T10:24:16.002Z,1.83
2022-08-09T10:26:07.147Z,1.90
2022-08-09T10:27:38.786Z,1.77
2022-08-09T10:29:36.019Z,2.00
2022-08-09T10:32:42.715Z,2.03
2022-08-09T10:34:18.967Z,2.15
2022-08-09T10:35:50.805Z,2.20
2022-08-09T10:37:16.550Z,1.75
2022-08-09T10:38:56.541Z,2.92
2022-08-09T10:40:33.314Z,2.10
2022-08-09T10:41:58.869Z,1.92
2022-08-09T10:43:24.062Z,1.98
2022-08-09T10:44:50.420Z,1.73
2022-08-09T10:46:55.755Z,2.30
2022-08-09T10:48:30.534Z,2.33
2022-08-09T10:50:03.110Z,1.77
2022-08-09T10:51:41.318Z,2.00
2022-08-09T10:53:10.255Z,1.95
2022-08-09T10:54:34.534Z,2.03
2022-08-09T10:56:22.576Z,2.20
2022-08-09T10:57:46.884Z,2.63
2022-08-09T10:59:43.261Z,1.65
2022-08-09T11:03:14.732Z,1.92
2022-08-09T11:03:51.326Z,1.85
2022-08-09T11:05:25.211Z,1.80
2022-08-09T11:07:57.509Z,2.10
2022-08-09T11:09:18.561Z,2.10
2022-08-09T11:10:56.413Z,1.95
2022-08-09T11:12:30.470Z,2.05
2022-08-09T11:14:28.484Z,2.30
2022-08-09T11:16:04.679Z,2.08
2022-08-09T11:17:53.764Z,2.05
2022-08-09T11:20:10.045Z,2.13
2022-08-09T11:22:16.908Z,2.20
2022-08-09T11:24:01.863Z,2.25
2022-08-09T11:25:46.124Z,1.98
2022-08-09T11:28:04.706Z,2.15
2022-08-09T11:30:06.040Z,1.83
2022-08-09T11:31:53.114Z,2.35
2022-08-09T11:33:31.534Z,2.03
2022-08-09T11:34:55.326Z,1.90
2022-08-09T11:36:35.318Z,2.00
2022-08-09T11:38:00.567Z,2.78
2022-08-09T11:39:25.260Z,2.15
2022-08-09T11:40:59.675Z,2.10
2022-08-09T11:42:42.070Z,2.03
2022-08-09T11:44:05.933Z,1.80
2022-08-09T11:45:42.775Z,2.17
2022-08-09T11:47:10.931Z,1.67
2022-08-09T11:48:52.174Z,1.83
2022-08-09T11:50:56.445Z,1.80
2022-08-09T11:53:03.529Z,1.90
2022-08-09T11:54:01.620Z,2.38
2022-08-09T11:55:52.856Z,2.13
2022-08-09T11:57:47.842Z,2.47
2022-08-09T11:59:30.414Z,2.15
2022-08-09T12:00:59.976Z,2.00
2022-08-09T12:02:37.585Z,2.00
2022-08-09T12:04:05.683Z,1.98
2022-08-09T12:05:37.932Z,2.35
2022-08-09T12:07:04.262Z,2.10
2022-08-09T12:08:31.540Z,2.53
2022-08-09T12:09:55.351Z,1.85
2022-08-09T12:11:20.592Z,2.08
2022-08-09T12:12:52.951Z,1.98
2022-08-09T12:14:37.156Z,2.30
2022-08-09T12:16:01.946Z,1.85
2022-08-09T12:17:28.231Z,2.10
2022-08-09T12:19:06.531Z,2.10
2022-08-09T12:20:30.772Z,1.90
2022-08-09T12:21:57.743Z,1.73
2022-08-09T12:23:24.776Z,2.20
2022-08-09T12:25:14.845Z,2.30
2022-08-09T12:26:40.372Z,1.75
2022-08-09T12:29:14.482Z,1.52
2022-08-09T12:30:04.054Z,1.98
2022-08-09T12:32:02.162Z,2.05
2022-08-09T12:33:26.351Z,2.13
2022-08-09T12:35:02.617Z,1.90
2022-08-09T12:36:31.819Z,2.00
2022-08-09T12:37:57.154Z,1.75
2022-08-09T12:39:21.973Z,2.08
2022-08-09T12:40:45.765Z,1.98
2022-08-09T12:42:10.612Z,1.70
2022-08-09T12:44:05.529Z,1.70
2022-08-09T12:45:35.018Z,2.33
2022-08-09T12:47:02.426Z,2.10
2022-08-09T12:50:23.660Z,2.03
2022-08-09T12:52:02.541Z,1.90
2022-08-09T12:53:37.648Z,2.05
2022-08-09T12:56:12.174Z,2.10
2022-08-09T12:56:54.044Z,1.92
2022-08-09T12:58:27.288Z,1.73
2022-08-09T13:00:02.960Z,2.40
2022-08-09T13:01:28.746Z,2.25
2022-08-09T13:02:54.448Z,1.70
2022-08-09T13:04:33.222Z,2.00
2022-08-09T13:06:13.213Z,1.80
2022-08-09T13:07:51.358Z,2.00
2022-08-09T13:09:18.070Z,2.20
2022-08-09T13:10:52.722Z,1.95
2022-08-09T13:12:16.654Z,1.90
2022-08-09T13:14:37.116Z,1.80
2022-08-09T13:15:28.737Z,1.90
2022-08-09T13:16:59.281Z,1.92
2022-08-09T13:18:27.378Z,2.38
2022-08-09T13:20:07.011Z,2.42
2022-08-09T13:22:37.480Z,2.20
2022-08-09T13:24:17.075Z,2.10
2022-08-09T13:25:03.687Z,1.73
2022-08-09T13:26:39.032Z,1.60
2022-08-09T13:28:11.670Z,2.13
2022-08-09T13:30:03.831Z,1.70
2022-08-09T13:32:16.212Z,1.83
2022-08-09T13:33:53.716Z,1.70
2022-08-09T13:35:19.754Z,1.95
2022-08-09T13:36:43.608Z,1.75
2022-08-09T13:38:32.928Z,1.83
2022-08-09T13:41:55.682Z,1.83
2022-08-09T13:41:59.395Z,1.90
2022-08-09T13:43:21.592Z,1.98
2022-08-09T13:44:59.515Z,1.83
2022-08-09T13:47:15.217Z,1.67
2022-08-09T13:48:10.638Z,1.90
2022-08-09T13:49:37.772Z,1.88
2022-08-09T13:51:01.941Z,2.53
2022-08-09T13:52:25.766Z,2.10
2022-08-09T13:53:50.035Z,2.17
2022-08-09T13:55:17.732Z,1.80
2022-08-09T13:56:41.709Z,2.00
2022-08-09T13:58:11.651Z,1.63
2022-08-09T13:59:37.165Z,2.05
2022-08-09T14:01:13.313Z,1.83
2022-08-09T14:03:04.678Z,1.70
2022-08-09T14:04:37.670Z,2.00
2022-08-09T14:06:03.464Z,1.60
2022-08-09T14:07:41.232Z,1.55
2022-08-09T14:09:06.007Z,1.85
2022-08-09T14:10:46.010Z,2.72
2022-08-09T14:12:15.634Z,2.10
2022-08-09T14:14:22.341Z,1.75
2022-08-09T14:16:06.857Z,1.65
2022-08-09T14:17:07.128Z,1.83
2022-08-09T14:18:35.718Z,2.13
2022-08-09T14:20:02.058Z,1.80
2022-08-09T14:21:29.682Z,1.92
2022-08-09T14:22:55.588Z,1.85
2022-08-09T14:24:22.275Z,1.80
2022-08-09T14:26:01.332Z,2.40
2022-08-09T14:27:25.282Z,2.03
2022-08-09T14:28:50.406Z,1.60
2022-08-09T14:30:37.159Z,1.48
2022-08-09T14:32:04.470Z,1.58
2022-08-09T14:33:38.189Z,2.10
2022-08-09T14:35:03.630Z,1.73
2022-08-09T14:36:27.868Z,1.90
2022-08-09T14:38:04.478Z,1.83
2022-08-09T14:39:45.232Z,1.40
2022-08-09T14:41:35.238Z,1.77
2022-08-09T14:42:54.808Z,1.90
2022-08-09T14:44:32.247Z,1.80
2022-08-09T14:46:58.524Z,1.45
2022-08-09T14:47:49.661Z,1.40
2022-08-09T14:49:23.618Z,1.65
2022-08-09T14:50:49.534Z,1.40
2022-08-09T14:52:13.620Z,1.40
2022-08-09T14:53:39.967Z,1.50
2022-08-09T14:55:11.126Z,1.40
2022-08-09T14:56:34.675Z,1.55
2022-08-09T14:58:18.390Z,1.83
2022-08-09T14:59:46.792Z,1.70
2022-08-09T15:01:12.900Z,1.60
2022-08-09T15:02:36.555Z,1.70
2022-08-09T15:04:01.372Z,1.70
2022-08-09T15:05:26.389Z,1.70
2022-08-09T15:06:52.561Z,1.95
2022-08-09T15:08:16.480Z,1.92
2022-08-09T15:10:07.927Z,1.80
2022-08-09T15:11:26.402Z,1.73
2022-08-09T15:12:49.338Z,1.73
2022-08-09T15:14:13.767Z,2.10
2022-08-09T15:15:43.700Z,1.90
2022-08-09T15:17:09.723Z,2.03
2022-08-09T15:18:33.508Z,1.90
2022-08-09T15:20:02.242Z,1.70
2022-08-09T15:21:57.972Z,2.78
2022-08-09T15:24:09.073Z,1.70
2022-08-09T15:24:57.909Z,1.42
2022-08-09T15:26:31.191Z,1.60
2022-08-09T15:28:01.050Z,1.42
2022-08-09T15:30:56.813Z,1.73
2022-08-09T15:31:13.464Z,2.60
2022-08-09T15:32:41.950Z,1.90
2022-08-09T15:34:32.870Z,1.75
2022-08-09T15:36:02.023Z,1.85
2022-08-09T15:37:56.275Z,1.77
2022-08-09T15:39:24.594Z,1.80
2022-08-09T15:40:58.705Z,1.60
2022-08-09T15:42:22.351Z,1.52
2022-08-09T15:43:46.062Z,1.60
2022-08-09T15:45:11.594Z,1.67
2022-08-09T15:46:35.502Z,1.30
2022-08-09T15:48:05.360Z,1.92
2022-08-09T15:49:32.624Z,1.70
2022-08-09T15:50:56.283Z,1.70
2022-08-09T15:52:20.919Z,1.48
2022-08-09T15:54:04.920Z,1.90
2022-08-09T15:55:34.535Z,2.00
2022-08-09T15:57:34.365Z,1.85
2022-08-09T15:59:00.029Z,1.85
2022-08-09T16:00:30.856Z,1.77
2022-08-09T16:01:54.509Z,1.60
2022-08-09T16:03:29.554Z,1.80
2022-08-09T16:05:02.444Z,1.60
2022-08-09T16:06:34.677Z,1.60
2022-08-09T16:07:59.271Z,1.58
2022-08-09T16:09:51.490Z,1.73
2022-08-09T16:11:10.208Z,1.63
2022-08-09T16:12:33.240Z,1.50
2022-08-09T16:14:04.642Z,1.67
2022-08-09T16:16:12.331Z,1.60
2022-08-09T16:17:17.068Z,1.73
2022-08-09T16:18:44.870Z,1.33
2022-08-09T16:20:11.295Z,1.63
2022-08-09T16:21:36.679Z,1.52
2022-08-09T16:23:01.366Z,1.52
2022-08-09T16:24:32.707Z,1.52
2022-08-09T16:26:00.970Z,1.60
2022-08-09T16:27:29.736Z,1.45
2022-08-09T16:28:53.816Z,1.65
2022-08-09T16:30:25.807Z,1.40
2022-08-09T16:32:19.216Z,1.55
2022-08-09T16:33:43.926Z,1.67
2022-08-09T16:35:11.229Z,1.85
2022-08-09T16:36:43.766Z,2.00
2022-08-09T16:38:10.764Z,2.25
2022-08-09T16:39:48.234Z,1.60
2022-08-09T16:41:20.858Z,1.83
2022-08-09T16:42:49.973Z,1.55
2022-08-09T16:44:13.934Z,1.20
2022-08-09T16:45:44.239Z,1.80
2022-08-09T16:48:41.090Z,1.50
2022-08-09T16:49:02.083Z,1.60
2022-08-09T16:50:38.691Z,1.48
2022-08-09T16:52:02.681Z,1.50
2022-08-09T16:53:34.233Z,1.30
2022-08-09T16:54:58.378Z,1.73
2022-08-09T16:56:25.239Z,1.60
2022-08-09T16:58:09.240Z,1.70
2022-08-09T16:59:35.035Z,1.30
2022-08-09T17:00:58.751Z,1.60
2022-08-09T17:02:23.210Z,1.55
2022-08-09T17:03:47.076Z,1.60
2022-08-09T17:05:12.398Z,1.27
2022-08-09T17:08:40.935Z,1.60
2022-08-09T17:08:43.076Z,1.27
2022-08-09T17:10:04.817Z,1.40
2022-08-09T17:11:39.909Z,1.80
2022-08-09T17:13:07.065Z,1.70
2022-08-09T17:14:34.576Z,1.80
2022-08-09T17:16:02.240Z,1.70
2022-08-09T17:17:27.724Z,1.67
2022-08-09T17:18:50.515Z,1.80
2022-08-09T17:20:33.139Z,1.70
2022-08-09T17:21:58.715Z,1.77
2022-08-09T17:23:23.693Z,1.52
2022-08-09T17:25:11.549Z,1.67
2022-08-09T17:26:38.416Z,1.60
2022-08-09T17:28:07.582Z,1.48
2022-08-09T17:29:37.980Z,1.50
2022-08-09T17:31:04.796Z,1.40
2022-08-09T17:32:37.929Z,1.42
2022-08-09T17:34:02.052Z,1.52
2022-08-09T17:35:26.646Z,1.75
2022-08-09T17:36:53.422Z,1.48
2022-08-09T17:38:34.063Z,1.58
2022-08-09T17:40:00.909Z,1.75
2022-08-09T17:41:38.428Z,1.65
2022-08-09T17:43:32.589Z,1.90
2022-08-09T17:44:51.776Z,1.58
2022-08-09T17:46:17.724Z,1.63
2022-08-09T17:47:49.364Z,1.30
2022-08-09T17:49:18.587Z,1.67
2022-08-09T17:50:56.083Z,1.83
2022-08-09T17:52:22.467Z,1.27
2022-08-09T17:53:51.520Z,1.50
2022-08-09T17:55:16.382Z,1.70
2022-08-09T17:56:40.431Z,1.38
2022-08-09T17:58:10.798Z,1.63
2022-08-09T17:59:38.368Z,1.48
2022-08-09T18:01:02.609Z,1.40
2022-08-09T18:02:30.269Z,1.77
2022-08-09T18:03:56.798Z,1.70
2022-08-09T18:05:22.951Z,1.77
2022-08-09T18:07:07.439Z,1.35
2022-08-09T18:08:31.538Z,1.75
2022-08-09T18:10:05.136Z,1.88
2022-08-09T18:11:29.204Z,1.40
2022-08-09T18:13:39.711Z,1.50
2022-08-09T18:14:37.785Z,1.58
2022-08-09T18:16:13.240Z,1.50
2022-08-09T18:18:02.490Z,1.80
2022-08-09T18:20:55.805Z,1.80
2022-08-09T18:21:18.962Z,1.55
2022-08-09T18:22:51.218Z,1.65
2022-08-09T18:24:15.306Z,1.40
2022-08-09T18:25:50.695Z,1.40
2022-08-09T18:27:18.804Z,1.48
2022-08-09T18:30:42.518Z,1.70
2022-08-09T18:30:49.376Z,1.50
2022-08-09T18:32:13.485Z,1.42
2022-08-09T18:33:37.273Z,1.85
2022-08-09T18:35:04.044Z,1.20
2022-08-09T18:36:32.058Z,1.30
2022-08-09T18:37:55.872Z,1.70
2022-08-09T18:39:19.572Z,1.52
2022-08-09T18:40:43.150Z,1.40
2022-08-09T18:42:09.040Z,1.60
2022-08-09T18:43:34.904Z,1.60
2022-08-09T18:45:01.028Z,1.70
2022-08-09T18:46:47.504Z,2.17
2022-08-09T18:48:10.034Z,1.48
2022-08-09T18:49:43.550Z,1.67
2022-08-09T18:51:10.483Z,1.70
2022-08-09T18:52:35.076Z,1.75
2022-08-09T18:54:03.722Z,1.90
2022-08-09T18:55:56.321Z,1.58
2022-08-09T18:57:15.905Z,1.75
2022-08-09T18:58:41.045Z,1.75
2022-08-09T19:00:05.221Z,1.80
2022-08-09T19:01:45.928Z,1.98
2022-08-09T19:03:09.995Z,1.80
2022-08-09T19:04:35.038Z,1.60
2022-08-09T19:06:02.858Z,1.67
2022-08-09T19:07:27.876Z,1.50
2022-08-09T19:09:02.694Z,1.25
2022-08-09T19:10:26.870Z,1.70
2022-08-09T19:11:50.496Z,1.85
2022-08-09T19:13:23.062Z,1.70
2022-08-09T19:14:58.192Z,1.40
2022-08-09T19:16:22.075Z,1.50
2022-08-09T19:17:55.191Z,1.30
2022-08-09T19:19:25.186Z,1.60
2022-08-09T19:20:56.760Z,1.50
2022-08-09T19:22:23.703Z,1.67
2022-08-09T19:24:33.234Z,1.67
2022-08-09T19:25:42.014Z,1.83
2022-08-09T19:27:14.562Z,1.70
2022-08-09T19:28:39.972Z,1.60
2022-08-09T19:30:20.946Z,1.45
2022-08-09T19:31:46.353Z,1.60
2022-08-09T19:33:19.139Z,1.50
2022-08-09T19:34:46.763Z,1.85
2022-08-09T19:36:13.593Z,1.67
2022-08-09T19:37:52.859Z,1.60
2022-08-09T19:39:43.916Z,1.98
2022-08-09T19:41:05.332Z,1.40
2022-08-09T19:42:29.015Z,1.52
2022-08-09T19:44:02.088Z,1.50
2022-08-09T19:45:26.462Z,1.65
2022-08-09T19:47:02.849Z,1.55
2022-08-09T19:49:00.694Z,1.55
2022-08-09T19:50:50.677Z,1.50
2022-08-09T19:51:58.017Z,1.73
2022-08-09T19:53:21.654Z,1.65
2022-08-09T19:54:45.211Z,2.00
2022-08-09T19:56:15.384Z,1.70
2022-08-09T19:57:39.506Z,1.60
2022-08-09T19:59:18.305Z,1.70
2022-08-09T20:00:49.798Z,1.50
2022-08-09T20:02:18.293Z,1.60
2022-08-09T20:04:17.045Z,1.73
2022-08-09T20:05:46.371Z,1.98
2022-08-09T20:07:21.071Z,1.60
2022-08-09T20:08:45.185Z,1.20
2022-08-09T20:10:17.724Z,1.55
2022-08-09T20:11:51.589Z,1.60
2022-08-09T20:13:20.560Z,1.33
2022-08-09T20:14:50.264Z,1.50
2022-08-09T20:16:38.492Z,1.40
2022-08-09T20:18:00.899Z,1.48
2022-08-09T20:19:46.396Z,1.48
2022-08-09T20:21:09.465Z,1.35
2022-08-09T20:22:33.967Z,2.28
2022-08-09T20:24:00.708Z,1.58
2022-08-09T20:25:24.353Z,1.20
2022-08-09T20:26:48.971Z,1.38